Main page
METAR-TAF:

METAR-TAF

Airports :

Pakse International Airport

Pakxe, Laos

latitude: 15-08-02N, longitude: 105-46-55E, elevation: 107 m

Current weather observation

The report was made 9 hours and 34 minutes ago, at 13:00 UTC
Wind 2 kt from the Northwest
Temperature 29°C
Humidity 43%
Pressure 1013 hPa
Visibility 10 km or more
no clouds below 1500 m and no cumulonimbus

METAR: VLPS 171300Z 32002KT CAVOK 29/15 Q1013 NOSIG

Time: 05:34 (22:34 UTC)

Forecast

The report was made 5 hours and 34 minutes ago, at 17:00 UTC
Forecast valid from 17 at 18 UTC to 18 at 18 UTC
Wind 4 kt from the South
Visibility 10 km or more
Few clouds at a height of 2000 ft
Scattered clouds at a height of 5000 ft

TAF: VLPS 171700Z 1718/1818 18004KT 9999 FEW020 SCT050

Weather observations and forecasts of more than 4000 airports (METAR and TAF reports).

The available stations are represented by yellow and red dots on the map.

Hover mouse over dot to see the name of the station.

Then click to see weather observations and forecasts.

To change the map : click on the green buttons with a black cross to zoom in, on the green button with a dash to zoom out, or on the green arrows for adjacent maps.


METAR-TAF: